createdAt,value
2022-10-06T00:00:17.176Z,100.0
2022-10-06T00:01:16.890Z,100.0
2022-10-06T00:02:16.983Z,100.0
2022-10-06T00:03:16.519Z,100.0
2022-10-06T00:04:17.013Z,100.0
2022-10-06T00:05:16.511Z,100.0
2022-10-06T00:06:17.015Z,100.0
2022-10-06T00:07:16.508Z,100.0
2022-10-06T00:08:16.974Z,100.0
2022-10-06T00:09:16.410Z,100.0
2022-10-06T00:10:16.838Z,100.0
2022-10-06T00:11:17.347Z,100.0
2022-10-06T00:12:16.890Z,100.0
2022-10-06T00:13:17.323Z,100.0
2022-10-06T00:14:16.750Z,100.0
2022-10-06T00:15:17.186Z,100.0
2022-10-06T00:16:16.843Z,100.0
2022-10-06T00:17:17.363Z,100.0
2022-10-06T00:18:16.837Z,100.0
2022-10-06T00:19:17.310Z,100.0
2022-10-06T00:20:16.749Z,100.0
2022-10-06T00:21:17.224Z,100.0
2022-10-06T00:22:16.962Z,100.0
2022-10-06T00:23:17.411Z,100.0
2022-10-06T00:24:16.871Z,100.0
2022-10-06T00:25:17.299Z,100.0
2022-10-06T00:26:17.692Z,100.0
2022-10-06T00:27:17.165Z,100.0
2022-10-06T00:28:16.721Z,100.0
2022-10-06T00:29:17.211Z,100.0
2022-10-06T00:30:16.686Z,100.0
2022-10-06T00:31:17.358Z,100.0
2022-10-06T00:32:16.533Z,100.0
2022-10-06T00:33:17.095Z,100.0
2022-10-06T00:34:16.618Z,100.0
2022-10-06T00:35:17.116Z,100.0
2022-10-06T00:36:16.616Z,100.0
2022-10-06T00:37:17.130Z,100.0
2022-10-06T00:38:16.571Z,100.0
2022-10-06T00:39:17.010Z,100.0
2022-10-06T00:40:16.438Z,100.0
2022-10-06T00:41:16.898Z,100.0
2022-10-06T00:42:16.511Z,100.0
2022-10-06T00:43:16.926Z,100.0
2022-10-06T00:44:17.361Z,100.0
2022-10-06T00:45:16.829Z,100.0
2022-10-06T00:46:17.373Z,100.0
2022-10-06T00:47:16.892Z,100.0
2022-10-06T00:48:17.344Z,100.0
2022-10-06T00:49:16.802Z,100.0
2022-10-06T00:50:17.284Z,100.0
2022-10-06T00:51:16.752Z,100.0
2022-10-06T00:52:16.925Z,100.0
2022-10-06T00:53:17.365Z,99.9
2022-10-06T00:54:16.794Z,99.8
2022-10-06T00:55:17.216Z,99.9
2022-10-06T00:56:16.856Z,99.8
2022-10-06T00:57:17.407Z,99.8
2022-10-06T00:58:16.825Z,99.8
2022-10-06T00:59:17.264Z,99.8
2022-10-06T01:00:16.810Z,99.8
2022-10-06T01:01:17.448Z,99.8
2022-10-06T01:02:16.816Z,99.9
2022-10-06T01:03:17.324Z,100.0
2022-10-06T01:04:16.830Z,100.0
2022-10-06T01:05:17.318Z,100.0
2022-10-06T01:06:16.776Z,100.0
2022-10-06T01:07:17.220Z,100.0
2022-10-06T01:08:16.685Z,100.0
2022-10-06T01:09:17.118Z,100.0
2022-10-06T01:10:16.544Z,100.0
2022-10-06T01:11:16.969Z,100.0
2022-10-06T01:12:16.871Z,100.0
2022-10-06T01:13:17.287Z,100.0
2022-10-06T01:14:16.750Z,100.0
2022-10-06T01:15:17.223Z,99.8
2022-10-06T01:16:16.830Z,99.9
2022-10-06T01:17:17.413Z,99.9
2022-10-06T01:18:16.884Z,99.8
2022-10-06T01:19:17.376Z,99.8
2022-10-06T01:20:16.835Z,99.8
2022-10-06T01:21:17.303Z,99.8
2022-10-06T01:22:17.013Z,99.8
2022-10-06T01:23:16.433Z,99.8
2022-10-06T01:24:16.854Z,99.8
2022-10-06T01:25:17.300Z,99.8
2022-10-06T01:26:16.742Z,99.8
2022-10-06T01:27:17.214Z,99.8
2022-10-06T01:28:16.779Z,99.9
2022-10-06T01:29:17.250Z,99.9
2022-10-06T01:30:16.719Z,99.9
2022-10-06T01:31:17.297Z,99.9
2022-10-06T01:32:16.675Z,100.0
2022-10-06T01:33:17.168Z,100.0
2022-10-06T01:34:16.643Z,100.0
2022-10-06T01:35:17.099Z,100.0
2022-10-06T01:36:16.540Z,100.0
2022-10-06T01:37:16.966Z,100.0
2022-10-06T01:38:17.394Z,100.0
2022-10-06T01:39:16.825Z,100.0
2022-10-06T01:40:17.249Z,100.0
2022-10-06T01:41:16.703Z,100.0
2022-10-06T01:42:17.197Z,100.0
2022-10-06T01:43:16.624Z,100.0
2022-10-06T01:44:17.115Z,100.0
2022-10-06T01:45:16.589Z,100.0
2022-10-06T01:46:17.155Z,100.0
2022-10-06T01:47:16.668Z,100.0
2022-10-06T01:48:17.187Z,100.0
2022-10-06T01:49:16.678Z,100.0
2022-10-06T01:50:17.153Z,100.0
2022-10-06T01:51:16.586Z,100.0
2022-10-06T01:52:17.086Z,100.0
2022-10-06T01:53:16.513Z,100.0
2022-10-06T01:54:16.962Z,100.0
2022-10-06T01:55:17.388Z,100.0
2022-10-06T01:56:16.836Z,100.0
2022-10-06T01:57:17.299Z,100.0
2022-10-06T01:58:16.723Z,100.0
2022-10-06T01:59:17.145Z,100.0
2022-10-06T02:00:16.605Z,100.0
2022-10-06T02:01:17.215Z,100.0
2022-10-06T02:02:16.752Z,100.0
2022-10-06T02:03:17.227Z,100.0
2022-10-06T02:04:16.884Z,100.0
2022-10-06T02:05:17.390Z,100.0
2022-10-06T02:06:16.989Z,100.0
2022-10-06T02:07:16.485Z,100.0
2022-10-06T02:08:16.916Z,100.0
2022-10-06T02:09:17.340Z,100.0
2022-10-06T02:10:16.806Z,100.0
2022-10-06T02:11:17.229Z,100.0
2022-10-06T02:12:16.605Z,100.0
2022-10-06T02:13:17.074Z,100.0
2022-10-06T02:14:16.503Z,100.0
2022-10-06T02:15:16.964Z,100.0
2022-10-06T02:16:17.755Z,100.0
2022-10-06T02:17:17.609Z,100.0
2022-10-06T02:18:17.063Z,100.0
2022-10-06T02:19:16.532Z,100.0
2022-10-06T02:20:17.016Z,100.0
2022-10-06T02:21:16.485Z,100.0
2022-10-06T02:22:16.943Z,100.0
2022-10-06T02:23:17.364Z,100.0
2022-10-06T02:24:16.798Z,100.0
2022-10-06T02:25:17.300Z,100.0
2022-10-06T02:26:16.731Z,100.0
2022-10-06T02:27:17.166Z,100.0
2022-10-06T02:28:16.818Z,100.0
2022-10-06T02:29:17.325Z,100.0
2022-10-06T02:30:16.800Z,100.0
2022-10-06T02:31:17.398Z,100.0
2022-10-06T02:32:16.667Z,100.0
2022-10-06T02:33:17.121Z,100.0
2022-10-06T02:34:16.590Z,100.0
2022-10-06T02:35:17.042Z,100.0
2022-10-06T02:36:16.515Z,100.0
2022-10-06T02:37:16.977Z,100.0
2022-10-06T02:38:16.403Z,100.0
2022-10-06T02:39:16.831Z,100.0
2022-10-06T02:40:17.256Z,100.0
2022-10-06T02:41:16.695Z,100.0
2022-10-06T02:42:17.217Z,99.9
2022-10-06T02:43:16.654Z,99.8
2022-10-06T02:44:17.070Z,99.8
2022-10-06T02:45:16.575Z,99.8
2022-10-06T02:46:17.164Z,99.9
2022-10-06T02:47:16.670Z,99.8
2022-10-06T02:48:17.130Z,99.8
2022-10-06T02:49:16.619Z,99.8
2022-10-06T02:50:17.096Z,99.8
2022-10-06T02:51:16.550Z,99.8
2022-10-06T02:52:16.948Z,99.8
2022-10-06T02:53:17.385Z,99.8
2022-10-06T02:54:16.839Z,99.8
2022-10-06T02:55:17.311Z,99.8
2022-10-06T02:56:16.758Z,99.8
2022-10-06T02:57:17.190Z,99.8
2022-10-06T02:58:16.651Z,99.8
2022-10-06T02:59:16.632Z,99.8
2022-10-06T03:00:17.130Z,99.8
2022-10-06T03:01:16.750Z,99.8
2022-10-06T03:02:17.555Z,99.8
2022-10-06T03:03:17.105Z,99.8
2022-10-06T03:04:16.605Z,99.8
2022-10-06T03:05:17.064Z,99.9
2022-10-06T03:06:16.524Z,100.0
2022-10-06T03:07:16.994Z,99.9
2022-10-06T03:08:16.426Z,99.8
2022-10-06T03:09:16.850Z,99.8
2022-10-06T03:10:17.338Z,99.8
2022-10-06T03:11:16.777Z,99.8
2022-10-06T03:12:16.457Z,99.8
2022-10-06T03:13:16.920Z,99.9
2022-10-06T03:14:22.267Z,100.0
2022-10-06T03:15:16.762Z,100.0
2022-10-06T03:16:17.436Z,100.0
2022-10-06T03:17:16.986Z,100.0
2022-10-06T03:18:16.451Z,100.0
2022-10-06T03:19:16.930Z,99.9
2022-10-06T03:20:17.396Z,100.0
2022-10-06T03:21:16.845Z,100.0
2022-10-06T03:22:17.709Z,100.0
2022-10-06T03:23:17.194Z,100.0
2022-10-06T03:24:16.697Z,100.0
2022-10-06T03:25:17.136Z,100.0
2022-10-06T03:26:16.566Z,100.0
2022-10-06T03:27:16.997Z,100.0
2022-10-06T03:28:16.674Z,100.0
2022-10-06T03:29:17.161Z,100.0
2022-10-06T03:30:16.641Z,100.0
2022-10-06T03:31:17.202Z,100.0
2022-10-06T03:32:16.858Z,100.0
2022-10-06T03:33:17.339Z,100.0
2022-10-06T03:34:16.792Z,100.0
2022-10-06T03:35:17.273Z,100.0
2022-10-06T03:36:16.711Z,100.0
2022-10-06T03:37:17.129Z,100.0
2022-10-06T03:38:16.584Z,100.0
2022-10-06T03:39:17.012Z,100.0
2022-10-06T03:40:16.484Z,100.0
2022-10-06T03:41:17.083Z,100.0
2022-10-06T03:42:16.758Z,100.0
2022-10-06T03:43:17.238Z,100.0
2022-10-06T03:44:16.691Z,100.0
2022-10-06T03:45:17.179Z,100.0
2022-10-06T03:46:16.779Z,100.0
2022-10-06T03:47:17.872Z,100.0
2022-10-06T03:48:17.367Z,100.0
2022-10-06T03:49:16.830Z,100.0
2022-10-06T03:50:17.311Z,100.0
2022-10-06T03:51:16.811Z,100.0
2022-10-06T03:52:23.677Z,100.0
2022-10-06T03:53:16.643Z,100.0
2022-10-06T03:54:17.105Z,100.0
2022-10-06T03:55:16.537Z,100.0
2022-10-06T03:56:16.960Z,100.0
2022-10-06T03:57:17.413Z,100.0
2022-10-06T03:58:16.864Z,100.0
2022-10-06T03:59:17.323Z,100.0
2022-10-06T04:00:16.810Z,100.0
2022-10-06T04:01:25.074Z,100.0
2022-10-06T04:02:16.992Z,100.0
2022-10-06T04:03:16.477Z,100.0
2022-10-06T04:04:16.922Z,100.0
2022-10-06T04:05:17.354Z,100.0
2022-10-06T04:06:16.811Z,100.0
2022-10-06T04:07:17.234Z,100.0
2022-10-06T04:08:16.657Z,100.0
2022-10-06T04:09:17.104Z,100.0
2022-10-06T04:10:16.548Z,100.0
2022-10-06T04:11:16.973Z,100.0
2022-10-06T04:12:16.731Z,100.0
2022-10-06T04:13:17.219Z,100.0
2022-10-06T04:14:16.713Z,100.0
2022-10-06T04:15:17.221Z,100.0
2022-10-06T04:16:16.828Z,100.0
2022-10-06T04:17:17.357Z,100.0
2022-10-06T04:18:17.152Z,100.0
2022-10-06T04:19:16.594Z,100.0
2022-10-06T04:20:17.038Z,100.0
2022-10-06T04:21:16.482Z,100.0
2022-10-06T04:22:16.991Z,100.0
2022-10-06T04:23:16.607Z,100.0
2022-10-06T04:24:17.058Z,100.0
2022-10-06T04:25:16.506Z,100.0
2022-10-06T04:26:16.978Z,100.0
2022-10-06T04:27:16.457Z,100.0
2022-10-06T04:28:17.026Z,100.0
2022-10-06T04:29:16.509Z,100.0
2022-10-06T04:30:16.967Z,100.0
2022-10-06T04:31:17.463Z,99.9
2022-10-06T04:32:16.852Z,99.9
2022-10-06T04:33:17.329Z,100.0
2022-10-06T04:34:16.749Z,99.9
2022-10-06T04:35:17.187Z,100.0
2022-10-06T04:36:16.635Z,100.0
2022-10-06T04:37:17.063Z,100.0
2022-10-06T04:38:16.508Z,100.0
2022-10-06T04:39:16.943Z,100.0
2022-10-06T04:40:17.409Z,100.0
2022-10-06T04:41:16.869Z,100.0
2022-10-06T04:42:17.092Z,100.0
2022-10-06T04:43:16.551Z,100.0
2022-10-06T04:44:17.040Z,100.0
2022-10-06T04:45:16.517Z,100.0
2022-10-06T04:46:42.538Z,100.0
2022-10-06T04:47:16.481Z,100.0
2022-10-06T04:48:16.904Z,100.0
2022-10-06T04:49:20.837Z,100.0
2022-10-06T04:50:17.372Z,100.0
2022-10-06T04:51:16.795Z,100.0
2022-10-06T04:52:16.613Z,100.0
2022-10-06T04:53:17.183Z,100.0
2022-10-06T04:54:16.630Z,100.0
2022-10-06T04:55:17.107Z,100.0
2022-10-06T04:56:16.567Z,100.0
2022-10-06T04:57:17.049Z,100.0
2022-10-06T04:58:16.512Z,100.0
2022-10-06T04:59:16.988Z,99.8
2022-10-06T05:00:16.444Z,99.8
2022-10-06T05:01:17.117Z,99.8
2022-10-06T05:02:16.583Z,99.8
2022-10-06T05:03:17.051Z,99.8
2022-10-06T05:04:16.474Z,99.8
2022-10-06T05:05:16.933Z,99.9
2022-10-06T05:06:17.371Z,99.9
2022-10-06T05:07:16.801Z,99.9
2022-10-06T05:08:17.236Z,99.9
2022-10-06T05:09:16.714Z,100.0
2022-10-06T05:10:17.179Z,100.0
2022-10-06T05:11:21.351Z,100.0
2022-10-06T05:12:17.345Z,100.0
2022-10-06T05:13:16.848Z,100.0
2022-10-06T05:14:17.351Z,100.0
2022-10-06T05:15:16.842Z,100.0
2022-10-06T05:16:17.393Z,100.0
2022-10-06T05:17:16.863Z,100.0
2022-10-06T05:18:17.330Z,100.0
2022-10-06T05:19:16.759Z,100.0
2022-10-06T05:20:17.187Z,100.0
2022-10-06T05:21:16.611Z,100.0
2022-10-06T05:22:17.242Z,100.0
2022-10-06T05:23:16.683Z,100.0
2022-10-06T05:24:17.156Z,100.0
2022-10-06T05:25:16.606Z,100.0
2022-10-06T05:26:17.075Z,100.0
2022-10-06T05:27:16.524Z,100.0
2022-10-06T05:28:17.144Z,100.0
2022-10-06T05:29:16.672Z,100.0
2022-10-06T05:30:17.150Z,99.9
2022-10-06T05:31:16.709Z,99.8
2022-10-06T05:32:17.193Z,99.8
2022-10-06T05:33:16.653Z,99.8
2022-10-06T05:34:17.160Z,99.8
2022-10-06T05:35:16.728Z,99.8
2022-10-06T05:36:17.152Z,99.7
2022-10-06T05:37:16.588Z,99.8
2022-10-06T05:38:17.009Z,99.8
2022-10-06T05:39:16.511Z,99.8
2022-10-06T05:40:17.000Z,99.8
2022-10-06T05:41:16.493Z,99.8
2022-10-06T05:42:16.959Z,99.7
2022-10-06T05:43:17.447Z,99.8
2022-10-06T05:44:16.938Z,99.8
2022-10-06T05:45:17.412Z,99.8
2022-10-06T05:46:16.983Z,99.7
2022-10-06T05:47:16.440Z,99.7
2022-10-06T05:48:16.866Z,99.8
2022-10-06T05:49:17.295Z,99.8
2022-10-06T05:50:16.714Z,99.8
2022-10-06T05:51:17.173Z,99.8
2022-10-06T05:52:16.606Z,99.8
2022-10-06T05:53:17.059Z,99.8
2022-10-06T05:54:16.535Z,99.8
2022-10-06T05:55:16.994Z,99.8
2022-10-06T05:56:16.466Z,99.8
2022-10-06T05:57:16.949Z,99.8
2022-10-06T05:58:18.778Z,99.8
2022-10-06T05:59:17.263Z,99.8
2022-10-06T06:00:16.722Z,99.8
2022-10-06T06:01:17.236Z,99.8
2022-10-06T06:02:16.945Z,99.7
2022-10-06T06:03:16.465Z,99.6
2022-10-06T06:04:16.899Z,99.6
2022-10-06T06:05:17.333Z,99.6
2022-10-06T06:06:16.798Z,99.6
2022-10-06T06:07:17.322Z,99.6
2022-10-06T06:08:16.811Z,99.6
2022-10-06T06:09:17.283Z,99.6
2022-10-06T06:10:16.778Z,99.5
2022-10-06T06:11:17.250Z,99.6
2022-10-06T06:12:16.749Z,99.6
2022-10-06T06:13:17.193Z,99.6
2022-10-06T06:14:16.617Z,99.6
2022-10-06T06:15:17.040Z,99.5
2022-10-06T06:16:16.573Z,99.6
2022-10-06T06:17:17.037Z,99.5
2022-10-06T06:18:16.467Z,99.6
2022-10-06T06:19:16.906Z,99.6
2022-10-06T06:20:17.343Z,99.6
2022-10-06T06:21:16.794Z,99.7
2022-10-06T06:22:17.017Z,99.6
2022-10-06T06:23:16.487Z,99.6
2022-10-06T06:24:16.984Z,99.5
2022-10-06T06:25:16.450Z,99.6
2022-10-06T06:26:16.915Z,99.6
2022-10-06T06:27:17.400Z,99.5
2022-10-06T06:28:16.987Z,99.5
2022-10-06T06:29:16.504Z,99.5
2022-10-06T06:30:16.928Z,99.5
2022-10-06T06:31:20.638Z,99.5
2022-10-06T06:32:16.914Z,99.5
2022-10-06T06:33:17.357Z,99.4
2022-10-06T06:34:16.783Z,99.3
2022-10-06T06:35:17.254Z,99.3
2022-10-06T06:36:16.718Z,99.3
2022-10-06T06:37:17.175Z,99.3
2022-10-06T06:38:16.665Z,99.3
2022-10-06T06:39:17.142Z,99.4
2022-10-06T06:40:16.607Z,99.4
2022-10-06T06:41:17.123Z,99.4
2022-10-06T06:42:16.653Z,99.5
2022-10-06T06:43:17.072Z,99.5
2022-10-06T06:44:16.517Z,99.5
2022-10-06T06:45:17.166Z,99.5
2022-10-06T06:46:16.940Z,99.5
2022-10-06T06:47:16.479Z,99.5
2022-10-06T06:48:16.903Z,99.5
2022-10-06T06:49:17.349Z,99.5
2022-10-06T06:50:16.810Z,99.5
2022-10-06T06:51:17.280Z,99.5
2022-10-06T06:52:16.567Z,99.5
2022-10-06T06:53:17.063Z,99.5
2022-10-06T06:54:16.542Z,99.5
2022-10-06T06:55:16.997Z,99.5
2022-10-06T06:56:16.468Z,99.5
2022-10-06T06:57:16.945Z,99.5
2022-10-06T06:58:17.388Z,99.5
2022-10-06T06:59:16.816Z,99.5
2022-10-06T07:00:17.264Z,99.4
2022-10-06T07:01:16.776Z,99.3
2022-10-06T07:02:16.966Z,99.3
2022-10-06T07:03:52.444Z,99.3
2022-10-06T07:04:16.855Z,99.2
2022-10-06T07:05:17.338Z,99.2
2022-10-06T07:06:16.813Z,99.3
2022-10-06T07:07:17.261Z,99.3
2022-10-06T07:08:16.719Z,99.3
2022-10-06T07:09:17.210Z,99.2
2022-10-06T07:10:16.676Z,99.2
2022-10-06T07:11:17.135Z,99.2
2022-10-06T07:12:16.731Z,99.2
2022-10-06T07:13:17.607Z,99.3
2022-10-06T07:14:17.060Z,99.3
2022-10-06T07:15:16.492Z,99.2
2022-10-06T07:16:17.037Z,99.2
2022-10-06T07:17:16.480Z,99.2
2022-10-06T07:18:16.924Z,99.2
2022-10-06T07:19:24.927Z,99.2
2022-10-06T07:20:16.594Z,99.2
2022-10-06T07:21:17.070Z,99.2
2022-10-06T07:22:16.794Z,99.2
2022-10-06T07:23:17.263Z,99.2
2022-10-06T07:24:16.738Z,99.2
2022-10-06T07:25:24.497Z,99.1
2022-10-06T07:26:16.846Z,99.2
2022-10-06T07:27:17.293Z,99.1
2022-10-06T07:28:16.831Z,99.0
2022-10-06T07:29:17.329Z,99.2
2022-10-06T07:30:16.780Z,99.2
2022-10-06T07:31:17.323Z,99.1
2022-10-06T07:32:16.712Z,99.0
2022-10-06T07:33:17.140Z,99.0
2022-10-06T07:34:16.635Z,99.0
2022-10-06T07:35:17.197Z,99.0
2022-10-06T07:36:16.704Z,99.1
2022-10-06T07:37:17.152Z,99.2
2022-10-06T07:38:16.667Z,99.2
2022-10-06T07:39:17.128Z,99.3
2022-10-06T07:40:16.618Z,99.6
2022-10-06T07:41:20.685Z,99.7
2022-10-06T07:42:16.616Z,99.7
2022-10-06T07:43:17.047Z,99.7
2022-10-06T07:44:16.474Z,99.7
2022-10-06T07:45:16.895Z,99.8
2022-10-06T07:46:17.471Z,99.7
2022-10-06T07:47:16.960Z,99.7
2022-10-06T07:48:17.470Z,99.7
2022-10-06T07:49:16.926Z,99.7
2022-10-06T07:50:17.387Z,99.7
2022-10-06T07:51:16.872Z,99.6
2022-10-06T07:52:16.804Z,99.5
2022-10-06T07:53:17.267Z,99.4
2022-10-06T07:54:16.732Z,99.4
2022-10-06T07:55:17.205Z,99.3
2022-10-06T07:56:16.665Z,99.3
2022-10-06T07:57:17.161Z,99.1
2022-10-06T07:58:16.623Z,99.1
2022-10-06T07:59:18.798Z,99.0
2022-10-06T08:00:17.368Z,99.2
2022-10-06T08:01:16.935Z,99.2
2022-10-06T08:02:17.537Z,98.9
2022-10-06T08:03:17.155Z,98.3
2022-10-06T08:04:16.721Z,98.4
2022-10-06T08:05:17.212Z,98.5
2022-10-06T08:06:16.726Z,98.6
2022-10-06T08:07:17.388Z,98.5
2022-10-06T08:08:16.878Z,97.8
2022-10-06T08:09:17.352Z,97.5
2022-10-06T08:10:16.807Z,97.6
2022-10-06T08:11:17.236Z,97.8
2022-10-06T08:12:16.568Z,97.8
2022-10-06T08:13:17.007Z,97.7
2022-10-06T08:14:16.493Z,97.5
2022-10-06T08:15:16.957Z,97.5
2022-10-06T08:16:17.511Z,97.3
2022-10-06T08:17:17.031Z,96.7
2022-10-06T08:18:45.263Z,96.7
2022-10-06T08:19:16.957Z,96.7
2022-10-06T08:20:17.424Z,96.2
2022-10-06T08:21:16.942Z,96.5
2022-10-06T08:22:17.048Z,96.8
2022-10-06T08:23:16.535Z,96.5
2022-10-06T08:24:17.023Z,96.2
2022-10-06T08:25:17.208Z,96.4
2022-10-06T08:26:16.670Z,96.4
2022-10-06T08:27:17.101Z,96.4
2022-10-06T08:28:16.667Z,95.9
2022-10-06T08:29:17.135Z,94.9
2022-10-06T08:30:16.563Z,94.3
2022-10-06T08:31:17.132Z,94.4
2022-10-06T08:32:16.483Z,93.7
2022-10-06T08:33:21.622Z,93.1
2022-10-06T08:34:17.168Z,93.1
2022-10-06T08:35:16.632Z,93.1
2022-10-06T08:36:17.108Z,93.6
2022-10-06T08:37:20.761Z,92.8
2022-10-06T08:38:17.253Z,92.8
2022-10-06T08:39:16.706Z,92.3
2022-10-06T08:40:17.157Z,92.2
2022-10-06T08:41:16.582Z,92.1
2022-10-06T08:42:17.283Z,92.3
2022-10-06T08:43:16.722Z,92.2
2022-10-06T08:44:17.151Z,92.3
2022-10-06T08:45:16.626Z,92.1
2022-10-06T08:46:22.392Z,91.8
2022-10-06T08:47:17.064Z,91.4
2022-10-06T08:48:16.531Z,90.2
2022-10-06T08:49:16.988Z,90.4
2022-10-06T08:50:16.443Z,89.5
2022-10-06T08:51:16.899Z,89.1
2022-10-06T08:52:17.434Z,88.8
2022-10-06T08:53:16.914Z,89.3
2022-10-06T08:54:17.354Z,89.6
2022-10-06T08:55:16.830Z,89.0
2022-10-06T08:56:17.274Z,87.8
2022-10-06T08:57:16.715Z,88.0
2022-10-06T08:58:17.156Z,87.2
2022-10-06T08:59:16.609Z,87.1
2022-10-06T09:00:22.357Z,86.8
2022-10-06T09:01:17.070Z,86.0
2022-10-06T09:02:17.337Z,85.8
2022-10-06T09:03:16.805Z,86.7
2022-10-06T09:04:17.285Z,85.8
2022-10-06T09:05:16.785Z,86.7
2022-10-06T09:06:17.267Z,85.4
2022-10-06T09:07:16.740Z,85.5
2022-10-06T09:08:17.282Z,86.1
2022-10-06T09:09:16.726Z,86.3
2022-10-06T09:10:17.172Z,85.9
2022-10-06T09:11:16.614Z,85.8
2022-10-06T09:12:17.239Z,84.3
2022-10-06T09:13:22.252Z,84.1
2022-10-06T09:14:16.781Z,84.1
2022-10-06T09:15:17.215Z,83.8
2022-10-06T09:16:16.837Z,83.0
2022-10-06T09:17:17.333Z,83.2
2022-10-06T09:18:16.811Z,82.9
2022-10-06T09:19:17.315Z,83.4
2022-10-06T09:20:16.797Z,82.6
2022-10-06T09:21:17.264Z,82.0
2022-10-06T09:22:16.761Z,80.9
2022-10-06T09:23:17.322Z,79.5
2022-10-06T09:24:16.870Z,79.5
2022-10-06T09:25:17.394Z,78.3
2022-10-06T09:26:16.817Z,79.1
2022-10-06T09:27:17.279Z,78.7
2022-10-06T09:28:16.887Z,77.3
2022-10-06T09:29:17.339Z,76.7
2022-10-06T09:30:16.766Z,76.2
2022-10-06T09:31:17.520Z,75.7
2022-10-06T09:32:16.806Z,75.1
2022-10-06T09:33:17.316Z,74.9
2022-10-06T09:34:16.781Z,73.8
2022-10-06T09:35:17.237Z,73.6
2022-10-06T09:36:16.714Z,74.1
2022-10-06T09:37:17.198Z,73.8
2022-10-06T09:38:16.671Z,73.4
2022-10-06T09:39:17.099Z,72.8
2022-10-06T09:40:16.533Z,72.2
2022-10-06T09:41:17.011Z,71.5
2022-10-06T09:42:16.626Z,71.2
2022-10-06T09:43:17.060Z,72.2
2022-10-06T09:44:16.491Z,72.6
2022-10-06T09:45:16.964Z,71.7
2022-10-06T09:46:17.460Z,71.9
2022-10-06T09:47:16.936Z,72.2
2022-10-06T09:48:22.172Z,71.7
2022-10-06T09:49:16.755Z,71.6
2022-10-06T09:50:17.512Z,70.7
2022-10-06T09:51:17.127Z,71.2
2022-10-06T09:52:17.420Z,72.7
2022-10-06T09:53:16.847Z,72.8
2022-10-06T09:54:17.287Z,72.2
2022-10-06T09:55:16.731Z,70.5
2022-10-06T09:56:17.184Z,70.7
2022-10-06T09:57:16.606Z,71.0
2022-10-06T09:58:17.066Z,71.2
2022-10-06T09:59:16.501Z,72.2
2022-10-06T10:00:17.090Z,73.3
2022-10-06T10:01:16.743Z,73.8
2022-10-06T10:02:16.942Z,74.2
2022-10-06T10:03:17.547Z,74.2
2022-10-06T10:04:21.915Z,74.6
2022-10-06T10:05:16.501Z,75.5
2022-10-06T10:06:16.957Z,75.8
2022-10-06T10:07:17.397Z,76.0
2022-10-06T10:08:16.837Z,76.2
2022-10-06T10:09:21.545Z,76.1
2022-10-06T10:10:16.927Z,76.7
2022-10-06T10:11:17.398Z,75.5
2022-10-06T10:12:17.008Z,77.0
2022-10-06T10:13:16.592Z,76.0
2022-10-06T10:14:17.038Z,75.7
2022-10-06T10:15:16.508Z,74.6
2022-10-06T10:16:17.031Z,74.8
2022-10-06T10:17:16.570Z,74.7
2022-10-06T10:18:17.085Z,74.6
2022-10-06T10:19:16.557Z,75.0
2022-10-06T10:20:17.072Z,75.0
2022-10-06T10:21:16.542Z,73.9
2022-10-06T10:22:16.975Z,73.8
2022-10-06T10:23:16.479Z,74.8
2022-10-06T10:24:16.899Z,76.2
2022-10-06T10:25:17.319Z,76.4
2022-10-06T10:26:16.757Z,75.8
2022-10-06T10:27:17.209Z,75.0
2022-10-06T10:28:16.785Z,75.5
2022-10-06T10:29:17.250Z,74.7
2022-10-06T10:30:16.723Z,74.3
2022-10-06T10:31:17.233Z,74.3
2022-10-06T10:32:16.855Z,75.3
2022-10-06T10:33:17.539Z,74.3
2022-10-06T10:34:24.952Z,74.1
2022-10-06T10:35:16.543Z,74.5
2022-10-06T10:36:16.972Z,75.0
2022-10-06T10:37:17.394Z,74.6
2022-10-06T10:38:16.848Z,74.2
2022-10-06T10:39:17.267Z,73.9
2022-10-06T10:40:16.706Z,73.2
2022-10-06T10:41:17.160Z,72.2
2022-10-06T10:42:16.836Z,72.4
2022-10-06T10:43:17.372Z,71.3
2022-10-06T10:44:16.836Z,70.6
2022-10-06T10:45:17.302Z,71.7
2022-10-06T10:46:16.914Z,70.8
2022-10-06T10:47:17.445Z,70.0
2022-10-06T10:48:16.915Z,70.2
2022-10-06T10:49:17.379Z,70.8
2022-10-06T10:50:16.834Z,70.8
2022-10-06T10:51:17.281Z,71.3
2022-10-06T10:52:16.974Z,70.3
2022-10-06T10:54:16.847Z,70.7
2022-10-06T10:55:17.285Z,70.3
2022-10-06T10:56:16.739Z,69.8
2022-10-06T10:57:17.208Z,70.2
2022-10-06T10:58:16.665Z,70.6
2022-10-06T10:59:17.130Z,70.8
2022-10-06T11:00:16.613Z,71.2
2022-10-06T11:01:17.301Z,70.8
2022-10-06T11:02:16.774Z,70.8
2022-10-06T11:03:17.293Z,70.5
2022-10-06T11:04:16.777Z,70.9
2022-10-06T11:05:17.208Z,71.1
2022-10-06T11:06:16.655Z,70.2
2022-10-06T11:07:17.076Z,69.1
2022-10-06T11:08:16.496Z,69.2
2022-10-06T11:09:16.960Z,69.2
2022-10-06T11:10:17.436Z,69.0
2022-10-06T11:11:16.906Z,69.1
2022-10-06T11:12:17.220Z,67.8
2022-10-06T11:13:16.698Z,67.4
2022-10-06T11:14:17.145Z,66.6
2022-10-06T11:15:16.613Z,67.0
2022-10-06T11:16:17.282Z,67.0
2022-10-06T11:17:16.782Z,67.5
2022-10-06T11:18:21.680Z,69.1
2022-10-06T11:19:17.165Z,69.5
2022-10-06T11:20:16.626Z,69.2
2022-10-06T11:21:17.068Z,69.5
2022-10-06T11:22:17.327Z,69.7
2022-10-06T11:23:16.784Z,69.5
2022-10-06T11:24:17.216Z,69.2
2022-10-06T11:25:16.666Z,69.7
2022-10-06T11:26:17.092Z,69.7
2022-10-06T11:27:16.561Z,70.7
2022-10-06T11:28:17.236Z,72.2
2022-10-06T11:29:16.788Z,71.5
2022-10-06T11:30:17.254Z,71.9
2022-10-06T11:31:23.129Z,71.8
2022-10-06T11:32:16.678Z,71.1
2022-10-06T11:33:17.160Z,71.5
2022-10-06T11:34:16.592Z,70.5
2022-10-06T11:35:17.045Z,70.8
2022-10-06T11:36:16.468Z,70.3
2022-10-06T11:37:16.921Z,69.3
2022-10-06T11:38:17.358Z,68.4
2022-10-06T11:39:16.788Z,68.2
2022-10-06T11:40:17.212Z,67.9
2022-10-06T11:41:16.733Z,67.8
2022-10-06T11:42:17.381Z,68.0
2022-10-06T11:43:16.886Z,69.2
2022-10-06T11:44:17.363Z,69.6
2022-10-06T11:45:16.839Z,69.3
2022-10-06T11:46:17.461Z,70.0
2022-10-06T11:47:17.037Z,69.5
2022-10-06T11:48:16.483Z,69.0
2022-10-06T11:49:16.912Z,69.5
2022-10-06T11:50:17.391Z,69.2
2022-10-06T11:51:16.839Z,69.0
2022-10-06T11:52:17.413Z,69.0
2022-10-06T11:53:16.879Z,69.5
2022-10-06T11:54:17.305Z,67.8
2022-10-06T11:55:16.769Z,67.3
2022-10-06T11:56:17.278Z,67.1
2022-10-06T11:57:16.742Z,66.7
2022-10-06T11:58:41.732Z,66.5
2022-10-06T11:59:16.676Z,66.7
2022-10-06T12:00:17.182Z,67.5
2022-10-06T12:01:16.639Z,67.7
2022-10-06T12:02:17.696Z,68.3
2022-10-06T12:03:17.301Z,67.3
2022-10-06T12:04:24.237Z,67.5
2022-10-06T12:05:55.153Z,67.8
2022-10-06T12:06:16.467Z,68.2
2022-10-06T12:07:16.885Z,68.3
2022-10-06T12:08:17.323Z,68.5
2022-10-06T12:09:16.747Z,68.5
2022-10-06T12:10:17.256Z,68.3
2022-10-06T12:11:16.720Z,68.2
2022-10-06T12:12:17.341Z,68.1
2022-10-06T12:17:05.406Z,67.9
2022-10-06T12:17:20.101Z,68.1
2022-10-06T12:18:16.594Z,68.2
2022-10-06T12:19:17.328Z,68.6
2022-10-06T12:20:16.757Z,69.3
2022-10-06T12:21:17.234Z,68.6
2022-10-06T12:22:16.780Z,69.6
2022-10-06T12:23:17.243Z,69.8
2022-10-06T12:24:16.721Z,68.9
2022-10-06T12:25:17.196Z,70.0
2022-10-06T12:26:16.706Z,68.9
2022-10-06T12:27:21.913Z,69.6
2022-10-06T12:28:16.663Z,68.9
2022-10-06T12:29:17.138Z,68.9
2022-10-06T12:30:16.635Z,68.8
2022-10-06T12:31:18.787Z,69.1
2022-10-06T12:32:16.664Z,69.1
2022-10-06T12:33:17.083Z,68.8
2022-10-06T12:34:16.530Z,69.0
2022-10-06T12:35:16.991Z,69.2
2022-10-06T12:36:16.423Z,68.4
2022-10-06T12:37:16.846Z,68.5
2022-10-06T12:38:17.323Z,68.8
2022-10-06T12:39:16.794Z,68.6
2022-10-06T12:40:17.271Z,68.4
2022-10-06T12:41:16.750Z,68.8
2022-10-06T12:42:17.309Z,68.8
2022-10-06T12:43:16.769Z,69.9
2022-10-06T12:44:17.238Z,70.2
2022-10-06T12:45:16.703Z,68.9
2022-10-06T12:46:17.253Z,68.9
2022-10-06T12:47:16.775Z,69.2
2022-10-06T12:48:17.212Z,69.4
2022-10-06T12:49:16.655Z,69.2
2022-10-06T12:50:17.105Z,69.3
2022-10-06T12:51:16.575Z,69.4
2022-10-06T12:52:17.093Z,69.3
2022-10-06T12:53:16.533Z,68.7
2022-10-06T12:54:17.009Z,68.9
2022-10-06T12:55:16.483Z,68.1
2022-10-06T12:56:16.957Z,68.2
2022-10-06T12:57:17.454Z,68.4
2022-10-06T12:58:16.919Z,68.8
2022-10-06T12:59:17.424Z,68.7
2022-10-06T13:00:16.990Z,67.9
2022-10-06T13:01:16.536Z,67.9
2022-10-06T13:02:16.907Z,67.6
2022-10-06T13:03:17.418Z,67.7
2022-10-06T13:04:16.867Z,67.8
2022-10-06T13:05:17.378Z,67.5
2022-10-06T13:06:16.830Z,67.9
2022-10-06T13:07:17.257Z,67.2
2022-10-06T13:08:16.741Z,67.2
2022-10-06T13:09:17.243Z,67.1
2022-10-06T13:10:16.775Z,67.4
2022-10-06T13:11:17.247Z,67.3
2022-10-06T13:12:16.480Z,68.0
2022-10-06T13:13:16.943Z,68.3